createdAt,value
2022-10-28T00:01:10.635Z,14.97
2022-10-28T00:04:15.373Z,14.95
2022-10-28T00:07:19.730Z,14.94
2022-10-28T00:10:23.999Z,14.92
2022-10-28T00:13:28.308Z,14.90
2022-10-28T00:16:36.945Z,14.88
2022-10-28T00:19:41.412Z,14.86
2022-10-28T00:22:45.369Z,14.80
2022-10-28T00:25:50.012Z,14.78
2022-10-28T00:29:06.862Z,14.77
2022-10-28T00:32:10.964Z,14.78
2022-10-28T00:35:15.436Z,14.76
2022-10-28T00:38:19.488Z,14.74
2022-10-28T00:41:49.772Z,14.73
2022-10-28T00:45:06.086Z,14.72
2022-10-28T00:48:10.845Z,14.71
2022-10-28T00:51:16.219Z,14.71
2022-10-28T00:54:22.120Z,14.70
2022-10-28T00:57:34.260Z,14.71
2022-10-28T01:00:38.590Z,14.68
2022-10-28T01:03:42.418Z,14.64
2022-10-28T01:06:48.151Z,14.64
2022-10-28T01:09:53.259Z,14.66
2022-10-28T01:13:31.131Z,14.65
2022-10-28T01:16:50.718Z,14.63
2022-10-28T01:20:29.755Z,14.62
2022-10-28T01:24:14.216Z,14.59
2022-10-28T01:28:04.900Z,14.54
2022-10-28T01:31:26.732Z,14.48
2022-10-28T01:34:40.984Z,14.43
2022-10-28T01:38:17.860Z,14.40
2022-10-28T01:41:32.419Z,14.42
2022-10-28T01:45:00.447Z,14.41
2022-10-28T01:48:21.284Z,14.44
2022-10-28T01:51:42.010Z,14.48
2022-10-28T01:54:53.719Z,14.51
2022-10-28T01:58:01.210Z,14.52
2022-10-28T02:01:09.259Z,14.55
2022-10-28T02:04:13.398Z,14.56
2022-10-28T02:07:17.935Z,14.56
2022-10-28T02:10:33.006Z,14.55
2022-10-28T02:14:40.162Z,14.53
2022-10-28T02:18:12.312Z,14.54
2022-10-28T02:21:28.275Z,14.55
2022-10-28T02:24:53.579Z,14.52
2022-10-28T02:31:31.172Z,14.50
2022-10-28T02:34:42.149Z,14.48
2022-10-28T02:37:48.733Z,14.46
2022-10-28T02:40:59.847Z,14.46
2022-10-28T02:44:23.889Z,14.47
2022-10-28T02:47:34.444Z,14.45
2022-10-28T02:50:46.671Z,14.45
2022-10-28T02:54:13.471Z,14.45
2022-10-28T02:57:34.206Z,14.44
2022-10-28T03:00:43.661Z,14.40
2022-10-28T03:03:49.406Z,14.42
2022-10-28T03:06:54.052Z,14.43
2022-10-28T03:09:58.688Z,14.48
2022-10-28T03:13:02.898Z,14.50
2022-10-28T03:16:08.480Z,14.52
2022-10-28T03:19:12.851Z,14.51
2022-10-28T03:22:17.253Z,14.54
2022-10-28T03:25:21.827Z,14.53
2022-10-28T03:28:29.110Z,14.53
2022-10-28T03:31:34.249Z,14.53
2022-10-28T03:34:39.163Z,14.49
2022-10-28T03:37:44.347Z,14.43
2022-10-28T03:40:50.114Z,14.41
2022-10-28T03:43:54.358Z,14.43
2022-10-28T03:46:58.680Z,14.38
2022-10-28T03:50:04.090Z,14.39
2022-10-28T03:53:08.776Z,14.34
2022-10-28T03:56:12.972Z,14.42
2022-10-28T03:59:19.356Z,14.46
2022-10-28T04:02:25.135Z,14.42
2022-10-28T04:05:29.657Z,14.41
2022-10-28T04:08:33.952Z,14.46
2022-10-28T04:11:38.388Z,14.45
2022-10-28T04:14:42.709Z,14.45
2022-10-28T04:17:47.179Z,14.46
2022-10-28T04:20:51.490Z,14.41
2022-10-28T04:23:55.941Z,14.33
2022-10-28T04:27:00.488Z,14.36
2022-10-28T04:30:06.294Z,14.39
2022-10-28T04:33:12.905Z,14.44
2022-10-28T04:36:17.551Z,14.48
2022-10-28T04:39:21.644Z,14.51
2022-10-28T04:42:25.862Z,14.51
2022-10-28T04:45:31.460Z,14.55
2022-10-28T04:48:36.513Z,14.54
2022-10-28T04:51:41.170Z,14.53
2022-10-28T04:54:45.213Z,14.51
2022-10-28T04:57:58.518Z,14.50
2022-10-28T05:01:08.343Z,14.46
2022-10-28T05:04:12.978Z,14.39
2022-10-28T05:07:19.903Z,14.37
2022-10-28T05:10:26.948Z,14.36
2022-10-28T05:13:31.150Z,14.34
2022-10-28T05:16:35.494Z,14.29
2022-10-28T05:19:39.832Z,14.23
2022-10-28T05:22:50.278Z,14.24
2022-10-28T05:25:55.883Z,14.21
2022-10-28T05:29:00.577Z,14.19
2022-10-28T05:35:10.497Z,14.14
2022-10-28T05:38:15.296Z,14.09
2022-10-28T05:41:19.430Z,14.07
2022-10-28T05:44:23.880Z,14.07
2022-10-28T05:47:28.155Z,14.07
2022-10-28T05:50:32.752Z,14.05
2022-10-28T05:53:37.358Z,14.04
2022-10-28T05:56:41.486Z,14.05
2022-10-28T05:59:46.007Z,14.05
2022-10-28T06:02:51.615Z,14.05
2022-10-28T06:05:58.020Z,14.00
2022-10-28T06:09:02.270Z,14.01
2022-10-28T06:12:06.808Z,13.99
2022-10-28T06:15:11.492Z,13.98
2022-10-28T06:18:18.853Z,14.02
2022-10-28T06:21:23.835Z,14.04
2022-10-28T06:24:27.916Z,14.04
2022-10-28T06:27:32.494Z,14.04
2022-10-28T06:30:36.951Z,14.07
2022-10-28T06:33:41.266Z,14.09
2022-10-28T06:36:45.948Z,14.10
2022-10-28T06:39:51.450Z,14.15
2022-10-28T06:43:00.830Z,14.16
2022-10-28T06:46:04.980Z,14.17
2022-10-28T06:49:10.867Z,14.17
2022-10-28T06:52:15.306Z,14.20
2022-10-28T06:55:21.029Z,14.23
2022-10-28T06:58:26.355Z,14.24
2022-10-28T07:01:30.934Z,14.27
2022-10-28T07:04:35.505Z,14.27
2022-10-28T07:07:39.816Z,14.23
2022-10-28T07:10:44.115Z,14.27
2022-10-28T07:13:49.087Z,14.28
2022-10-28T07:16:53.569Z,14.26
2022-10-28T07:19:58.051Z,14.30
2022-10-28T07:23:03.153Z,14.35
2022-10-28T07:26:07.626Z,14.40
2022-10-28T07:29:11.984Z,14.41
2022-10-28T07:32:15.865Z,14.43
2022-10-28T07:35:20.582Z,14.50
2022-10-28T07:38:26.439Z,14.56
2022-10-28T07:41:31.140Z,14.63
2022-10-28T07:44:35.554Z,14.70
2022-10-28T07:47:39.933Z,14.75
2022-10-28T07:50:44.308Z,14.79
2022-10-28T07:53:49.035Z,14.83
2022-10-28T07:56:53.529Z,14.91
2022-10-28T07:59:58.027Z,14.95
2022-10-28T08:03:03.015Z,15.00
2022-10-28T08:06:17.515Z,15.06
2022-10-28T08:09:22.357Z,15.10
2022-10-28T08:12:28.262Z,15.15
2022-10-28T08:15:32.775Z,15.18
2022-10-28T08:18:38.709Z,15.23
2022-10-28T08:21:43.233Z,15.27
2022-10-28T08:24:47.822Z,15.32
2022-10-28T08:27:53.322Z,15.33
2022-10-28T08:31:08.615Z,15.39
2022-10-28T08:34:13.730Z,15.43
2022-10-28T08:37:18.564Z,15.49
2022-10-28T08:40:42.364Z,15.53
2022-10-28T08:44:23.847Z,15.61
2022-10-28T08:47:53.016Z,15.67
2022-10-28T08:51:13.231Z,15.73
2022-10-28T08:54:26.000Z,15.81
2022-10-28T08:57:40.029Z,15.87
2022-10-28T09:00:50.577Z,15.89
2022-10-28T09:04:02.520Z,15.97
2022-10-28T09:07:21.325Z,16.04
2022-10-28T09:10:58.563Z,16.08
2022-10-28T09:14:26.882Z,16.17
2022-10-28T09:17:50.213Z,16.25
2022-10-28T09:21:02.925Z,16.33
2022-10-28T09:24:20.882Z,16.40
2022-10-28T09:27:43.783Z,16.47
2022-10-28T09:31:08.362Z,16.56
2022-10-28T09:34:30.619Z,16.56
2022-10-28T09:37:44.801Z,16.62
2022-10-28T09:41:03.748Z,16.68
2022-10-28T09:44:30.993Z,16.77
2022-10-28T09:47:44.702Z,16.84
2022-10-28T09:50:55.472Z,16.95
2022-10-28T09:54:01.453Z,17.01
2022-10-28T09:57:06.119Z,17.13
2022-10-28T10:00:14.347Z,17.23
2022-10-28T10:03:18.833Z,17.32
2022-10-28T10:06:38.911Z,17.46
2022-10-28T10:09:46.500Z,17.55
2022-10-28T10:12:55.816Z,17.68
2022-10-28T10:16:13.271Z,17.84
2022-10-28T10:19:17.853Z,18.03
2022-10-28T10:22:44.601Z,18.21
2022-10-28T10:26:06.743Z,18.34
2022-10-28T10:29:14.431Z,18.41
2022-10-28T10:32:32.127Z,18.46
2022-10-28T10:35:37.790Z,18.55
2022-10-28T10:38:54.387Z,18.54
2022-10-28T10:41:58.874Z,18.48
2022-10-28T10:45:26.364Z,18.38
2022-10-28T10:48:38.287Z,18.36
2022-10-28T10:51:52.944Z,18.30
2022-10-28T10:55:03.756Z,18.33
2022-10-28T10:58:21.314Z,18.40
2022-10-28T11:01:32.527Z,18.40
2022-10-28T11:04:37.064Z,18.47
2022-10-28T11:07:48.301Z,18.53
2022-10-28T11:11:19.715Z,18.62
2022-10-28T11:14:31.466Z,18.65
2022-10-28T11:17:36.147Z,18.68
2022-10-28T11:20:55.693Z,18.62
2022-10-28T11:24:34.844Z,18.64
2022-10-28T11:28:07.632Z,18.64
2022-10-28T11:32:00.693Z,18.64
2022-10-28T11:36:04.428Z,18.73
2022-10-28T11:39:32.479Z,18.76
2022-10-28T11:43:19.692Z,18.76
2022-10-28T11:47:16.699Z,18.69
2022-10-28T11:50:45.923Z,18.64
2022-10-28T11:54:30.349Z,18.61
2022-10-28T11:58:03.087Z,18.64
2022-10-28T12:01:32.474Z,18.76
2022-10-28T12:05:07.677Z,18.81
2022-10-28T12:08:32.797Z,18.86
2022-10-28T12:12:00.392Z,18.82
2022-10-28T12:15:32.356Z,18.82
2022-10-28T12:19:01.823Z,18.93
2022-10-28T12:22:17.957Z,19.04
2022-10-28T12:25:27.830Z,19.12
2022-10-28T12:28:45.022Z,19.22
2022-10-28T12:32:12.353Z,19.19
2022-10-28T12:35:27.986Z,19.12
2022-10-28T12:38:45.517Z,19.00
2022-10-28T12:42:18.295Z,18.89
2022-10-28T12:45:23.586Z,18.76
2022-10-28T12:48:45.760Z,18.65
2022-10-28T12:51:51.192Z,18.56
2022-10-28T12:55:13.049Z,18.52
2022-10-28T12:58:47.307Z,18.49
2022-10-28T13:01:52.615Z,18.45
2022-10-28T13:04:58.634Z,18.46
2022-10-28T13:08:25.579Z,18.50
2022-10-28T13:11:37.593Z,18.51
2022-10-28T13:15:21.869Z,18.51
2022-10-28T13:18:49.866Z,18.52
2022-10-28T13:22:12.957Z,18.54
2022-10-28T13:25:36.566Z,18.55
2022-10-28T13:28:52.133Z,18.56
2022-10-28T13:31:56.832Z,18.57
2022-10-28T13:35:10.429Z,18.55
2022-10-28T13:38:26.904Z,18.55
2022-10-28T13:41:43.326Z,18.55
2022-10-28T13:45:01.064Z,18.52
2022-10-28T13:48:30.477Z,18.51
2022-10-28T13:51:45.246Z,18.53
2022-10-28T13:54:56.004Z,18.55
2022-10-28T13:58:04.925Z,18.57
2022-10-28T14:01:56.751Z,18.51
2022-10-28T14:05:19.144Z,18.51
2022-10-28T14:08:35.472Z,18.48
2022-10-28T14:11:40.601Z,18.47
2022-10-28T14:15:02.217Z,18.42
2022-10-28T14:22:02.367Z,18.36
2022-10-28T14:25:45.898Z,18.30
2022-10-28T14:28:52.098Z,18.29
2022-10-28T14:31:56.462Z,18.30
2022-10-28T14:35:12.976Z,18.34
2022-10-28T14:38:56.037Z,18.34
2022-10-28T14:42:07.104Z,18.36
2022-10-28T14:45:14.291Z,18.35
2022-10-28T14:48:57.679Z,18.33
2022-10-28T14:52:17.706Z,18.31
2022-10-28T14:55:32.039Z,18.29
2022-10-28T14:58:45.835Z,18.28
2022-10-28T15:01:59.479Z,18.23
2022-10-28T15:05:23.431Z,18.20
2022-10-28T15:08:28.259Z,18.20
2022-10-28T15:11:34.003Z,18.19
2022-10-28T15:14:53.470Z,18.18
2022-10-28T15:18:00.068Z,18.16
2022-10-28T15:21:14.192Z,18.12
2022-10-28T15:24:18.838Z,18.08
2022-10-28T15:27:24.738Z,18.04
2022-10-28T15:30:29.788Z,18.00
2022-10-28T15:33:40.622Z,17.96
2022-10-28T15:36:49.385Z,17.94
2022-10-28T15:40:31.727Z,17.89
2022-10-28T15:43:36.317Z,17.84
2022-10-28T15:46:52.599Z,17.83
2022-10-28T15:50:27.159Z,17.78
2022-10-28T15:53:38.960Z,17.71
2022-10-28T15:56:56.496Z,17.67
2022-10-28T16:00:25.977Z,17.65
2022-10-28T16:03:45.124Z,17.66
2022-10-28T16:06:58.088Z,17.68
2022-10-28T16:10:14.095Z,17.67
2022-10-28T16:13:40.053Z,17.65
2022-10-28T16:16:46.968Z,17.63
2022-10-28T16:20:03.120Z,17.63
2022-10-28T16:23:21.347Z,17.57
2022-10-28T16:26:27.276Z,17.53
2022-10-28T16:29:34.458Z,17.51
2022-10-28T16:32:43.463Z,17.48
2022-10-28T16:35:51.431Z,17.46
2022-10-28T16:39:07.112Z,17.46
2022-10-28T16:42:20.136Z,17.45
2022-10-28T16:45:29.610Z,17.41
2022-10-28T16:48:33.966Z,17.43
2022-10-28T16:51:41.177Z,17.39
2022-10-28T16:54:50.203Z,17.38
2022-10-28T16:57:55.216Z,17.38
2022-10-28T17:01:01.312Z,17.39
2022-10-28T17:04:07.907Z,17.39
2022-10-28T17:07:16.222Z,17.38
2022-10-28T17:10:21.188Z,17.37
2022-10-28T17:13:28.403Z,17.38
2022-10-28T17:16:38.040Z,17.35
2022-10-28T17:19:46.574Z,17.34
2022-10-28T17:22:51.741Z,17.32
2022-10-28T17:25:59.342Z,17.32
2022-10-28T17:29:03.908Z,17.27
2022-10-28T17:32:08.922Z,17.24
2022-10-28T17:35:19.527Z,17.21
2022-10-28T17:38:27.937Z,17.20
2022-10-28T17:41:40.117Z,17.20
2022-10-28T17:44:51.158Z,17.19
2022-10-28T17:48:00.049Z,17.20
2022-10-28T17:51:04.794Z,17.18
2022-10-28T17:54:09.110Z,17.13
2022-10-28T17:57:13.465Z,17.10
2022-10-28T18:00:17.941Z,17.07
2022-10-28T18:03:22.583Z,17.04
2022-10-28T18:06:27.262Z,16.95
2022-10-28T18:09:32.324Z,16.84
2022-10-28T18:12:36.799Z,16.75
2022-10-28T18:15:42.172Z,16.70
2022-10-28T18:18:49.795Z,16.64
2022-10-28T18:21:54.191Z,16.62
2022-10-28T18:24:58.879Z,16.61
2022-10-28T18:28:05.243Z,16.70
2022-10-28T18:31:22.531Z,16.76
2022-10-28T18:34:27.576Z,16.79
2022-10-28T18:37:33.220Z,16.77
2022-10-28T18:40:37.659Z,16.79
2022-10-28T18:43:42.278Z,16.80
2022-10-28T18:46:46.859Z,16.83
2022-10-28T18:49:51.590Z,16.88
2022-10-28T18:52:58.207Z,16.90
2022-10-28T18:56:06.238Z,16.90
2022-10-28T18:59:10.838Z,16.94
2022-10-28T19:02:15.454Z,17.02
2022-10-28T19:05:20.201Z,17.08
2022-10-28T19:08:27.958Z,17.13
2022-10-28T19:11:44.570Z,17.22
2022-10-28T19:14:48.977Z,17.33
2022-10-28T19:17:55.307Z,17.43
2022-10-28T19:21:11.401Z,17.49
2022-10-28T19:24:15.628Z,17.49
2022-10-28T19:27:19.750Z,17.50
2022-10-28T19:30:27.280Z,17.52
2022-10-28T19:33:35.752Z,17.55
2022-10-28T19:36:42.890Z,17.56
2022-10-28T19:39:55.689Z,17.54
2022-10-28T19:43:06.127Z,17.56
2022-10-28T19:46:23.554Z,17.57
2022-10-28T19:49:37.196Z,17.56
2022-10-28T19:52:44.581Z,17.50
2022-10-28T19:56:08.405Z,17.47
2022-10-28T19:59:12.994Z,17.45
2022-10-28T20:02:21.300Z,17.43
2022-10-28T20:05:26.412Z,17.39
2022-10-28T20:08:35.451Z,17.35
2022-10-28T20:11:42.118Z,17.29
2022-10-28T20:14:54.716Z,17.23
2022-10-28T20:18:07.500Z,17.17
2022-10-28T20:21:28.922Z,17.13
2022-10-28T20:24:42.332Z,17.08
2022-10-28T20:27:46.875Z,17.02
2022-10-28T20:31:04.769Z,16.98
2022-10-28T20:34:09.630Z,16.94
2022-10-28T20:37:19.927Z,16.90
2022-10-28T20:40:24.937Z,16.83
2022-10-28T20:43:29.916Z,16.81
2022-10-28T20:46:39.024Z,16.77
2022-10-28T20:49:44.770Z,16.70
2022-10-28T20:52:51.491Z,16.65
2022-10-28T20:55:57.810Z,16.60
2022-10-28T20:59:02.691Z,16.55
2022-10-28T21:02:12.935Z,16.49
2022-10-28T21:05:17.826Z,16.42
2022-10-28T21:08:29.889Z,16.40
2022-10-28T21:11:38.673Z,16.35
2022-10-28T21:14:45.737Z,16.32
2022-10-28T21:17:50.264Z,16.25
2022-10-28T21:21:00.332Z,16.23
2022-10-28T21:24:08.773Z,16.19
2022-10-28T21:27:13.478Z,16.14
2022-10-28T21:30:19.813Z,16.11
2022-10-28T21:33:24.549Z,16.07
2022-10-28T21:36:30.826Z,16.01
2022-10-28T21:39:38.096Z,16.00
2022-10-28T21:42:49.167Z,15.97
2022-10-28T21:45:53.938Z,15.92
2022-10-28T21:49:01.791Z,15.90
2022-10-28T21:52:06.573Z,15.87
2022-10-28T21:55:20.271Z,15.84
2022-10-28T21:58:25.162Z,15.81
2022-10-28T22:01:29.788Z,15.75
2022-10-28T22:04:34.572Z,15.65
2022-10-28T22:07:39.345Z,15.55
2022-10-28T22:10:44.183Z,15.50
2022-10-28T22:13:57.032Z,15.44
2022-10-28T22:17:04.419Z,15.37
2022-10-28T22:20:10.939Z,15.32
2022-10-28T22:23:16.195Z,15.27
2022-10-28T22:26:24.969Z,15.20
2022-10-28T22:29:30.160Z,15.16
2022-10-28T22:32:34.829Z,15.12
2022-10-28T22:35:39.213Z,15.10
2022-10-28T22:38:43.442Z,15.06
2022-10-28T22:41:48.094Z,15.04
2022-10-28T22:44:52.798Z,15.00
2022-10-28T22:47:57.534Z,14.94
2022-10-28T22:51:03.017Z,14.89
2022-10-28T22:54:07.539Z,14.87
2022-10-28T22:57:12.364Z,14.83
2022-10-28T23:03:26.210Z,14.78
2022-10-28T23:06:30.738Z,14.76
2022-10-28T23:09:35.263Z,14.73
2022-10-28T23:12:39.448Z,14.69
2022-10-28T23:15:43.594Z,14.67
2022-10-28T23:18:48.845Z,14.64
2022-10-28T23:21:53.470Z,14.61
2022-10-28T23:24:57.810Z,14.58
2022-10-28T23:28:05.815Z,14.55
2022-10-28T23:31:15.268Z,14.54
2022-10-28T23:34:19.786Z,14.51
2022-10-28T23:37:24.061Z,14.48
2022-10-28T23:40:28.613Z,14.43
2022-10-28T23:43:33.859Z,14.40
2022-10-28T23:46:38.649Z,14.39
2022-10-28T23:49:42.660Z,14.35
2022-10-28T23:52:47.214Z,14.33
2022-10-28T23:55:52.111Z,14.30
2022-10-28T23:58:56.574Z,14.29
